Mission Home, Virginia
Current Conditions -  °F | °C
As of 5:53 PM on Saturday 20 Dec 2014 (Local Time) from KCHO Reporting Station
Overcast Overcast  
Wind Chill: 36°   Ceiling: 7500
Heat Index: 36°   Visibility: 10mi
Dew Point: 24°   Wind: 3mph
Humidity: 62%   Direction: 150°SSE
Pressure: 30.25"   Gusts: NA
Location:  38.2046°N, 78.6094°W
Report Text: KCHO 202253Z 15003KT 10SM BKN075 OVC090 02/M04 A3025 RMK AO2 SLP249 T00221044
Loading
Personal Weather Stations






























Interactive Weather Map New forecast layout! Learn more

10-Day Weather Forecast

Advertisements
Track Severe Weather on mobile